sensor_id;sensor_type;location;lat;lon;timestamp;pressure;altitude;pressure_sealevel;temperature;humidity
24996;BME280;13016;52.162;21.034;2023-01-31T16:54:22;99793.36;;;9.00;46.17
24996;BME280;13016;52.162;21.034;2023-01-31T16:59:38;99786.65;;;8.90;47.21
24996;BME280;13016;52.162;21.034;2023-01-31T17:04:32;99783.02;;;8.66;47.56
24996;BME280;13016;52.162;21.034;2023-01-31T17:09:52;99777.98;;;8.74;47.90
24996;BME280;13016;52.162;21.034;2023-01-31T17:18:10;99765.59;;;8.70;48.11
24996;BME280;13016;52.162;21.034;2023-01-31T17:24:11;99763.11;;;8.62;48.17
24996;BME280;13016;52.162;21.034;2023-01-31T17:26:37;99757.76;;;8.57;48.04
24996;BME280;13016;52.162;21.034;2023-01-31T17:29:02;99756.80;;;8.34;48.41
24996;BME280;13016;52.162;21.034;2023-01-31T17:31:27;99750.00;;;8.41;48.63
24996;BME280;13016;52.162;21.034;2023-01-31T17:33:52;99750.74;;;8.52;48.68
24996;BME280;13016;52.162;21.034;2023-01-31T17:36:18;99747.11;;;8.64;48.75
24996;BME280;13016;52.162;21.034;2023-01-31T17:38:43;99744.05;;;8.71;48.49
24996;BME280;13016;52.162;21.034;2023-01-31T17:41:14;99744.73;;;8.77;48.62
24996;BME280;13016;52.162;21.034;2023-01-31T17:43:40;99737.33;;;8.47;48.84
24996;BME280;13016;52.162;21.034;2023-01-31T17:46:06;99734.36;;;8.66;48.93
24996;BME280;13016;52.162;21.034;2023-01-31T17:48:31;99725.38;;;8.58;48.51
24996;BME280;13016;52.162;21.034;2023-01-31T17:50:57;99723.60;;;8.56;48.65
24996;BME280;13016;52.162;21.034;2023-01-31T17:53:22;99720.76;;;8.50;48.91
24996;BME280;13016;52.162;21.034;2023-01-31T17:55:47;99719.64;;;8.49;48.70
24996;BME280;13016;52.162;21.034;2023-01-31T17:58:14;99708.28;;;8.28;48.78
24996;BME280;13016;52.162;21.034;2023-01-31T18:00:40;99701.81;;;8.10;49.71
24996;BME280;13016;52.162;21.034;2023-01-31T18:04:23;99697.97;;;8.27;49.63
24996;BME280;13016;52.162;21.034;2023-01-31T18:06:49;99693.05;;;8.44;49.50
24996;BME280;13016;52.162;21.034;2023-01-31T18:09:14;99686.60;;;8.57;49.45
24996;BME280;13016;52.162;21.034;2023-01-31T18:11:39;99685.26;;;8.67;49.59
24996;BME280;13016;52.162;21.034;2023-01-31T18:14:05;99681.14;;;8.73;49.50
24996;BME280;13016;52.162;21.034;2023-01-31T18:16:30;99676.91;;;8.82;49.61
24996;BME280;13016;52.162;21.034;2023-01-31T18:18:55;99671.64;;;8.84;49.57
24996;BME280;13016;52.162;21.034;2023-01-31T18:21:21;99667.88;;;8.66;49.33
24996;BME280;13016;52.162;21.034;2023-01-31T18:23:49;99669.83;;;8.61;49.77
24996;BME280;13016;52.162;21.034;2023-01-31T18:26:15;99664.80;;;8.35;49.99
24996;BME280;13016;52.162;21.034;2023-01-31T18:28:40;99663.47;;;8.47;50.40
24996;BME280;13016;52.162;21.034;2023-01-31T18:31:07;99661.79;;;8.57;50.27
24996;BME280;13016;52.162;21.034;2023-01-31T18:33:32;99655.27;;;8.47;50.34
24996;BME280;13016;52.162;21.034;2023-01-31T18:35:59;99650.40;;;8.43;50.69
24996;BME280;13016;52.162;21.034;2023-01-31T18:38:29;99652.84;;;8.60;50.62
24996;BME280;13016;52.162;21.034;2023-01-31T18:40:54;99642.39;;;8.50;50.75
24996;BME280;13016;52.162;21.034;2023-01-31T18:43:20;99637.23;;;8.59;51.06
24996;BME280;13016;52.162;21.034;2023-01-31T18:45:45;99630.52;;;8.62;50.78
24996;BME280;13016;52.162;21.034;2023-01-31T18:48:10;99624.87;;;8.57;51.07
24996;BME280;13016;52.162;21.034;2023-01-31T18:50:36;99621.49;;;8.69;51.24
24996;BME280;13016;52.162;21.034;2023-01-31T18:53:02;99615.72;;;8.47;51.70
24996;BME280;13016;52.162;21.034;2023-01-31T18:55:27;99612.87;;;8.50;52.37
24996;BME280;13016;52.162;21.034;2023-01-31T18:57:53;99611.35;;;8.68;52.38
24996;BME280;13016;52.162;21.034;2023-01-31T19:00:18;99606.16;;;8.69;52.66
24996;BME280;13016;52.162;21.034;2023-01-31T19:02:51;99601.55;;;8.59;53.20
24996;BME280;13016;52.162;21.034;2023-01-31T19:05:18;99601.07;;;8.61;53.53
24996;BME280;13016;52.162;21.034;2023-01-31T19:07:44;99600.55;;;8.45;53.96
24996;BME280;13016;52.162;21.034;2023-01-31T19:10:10;99598.06;;;8.40;54.65
24996;BME280;13016;52.162;21.034;2023-01-31T19:12:35;99593.15;;;8.56;54.60
24996;BME280;13016;52.162;21.034;2023-01-31T19:15:00;99588.33;;;8.38;54.93
24996;BME280;13016;52.162;21.034;2023-01-31T19:17:25;99588.80;;;8.23;55.84
24996;BME280;13016;52.162;21.034;2023-01-31T19:19:51;99583.66;;;8.26;55.85
24996;BME280;13016;52.162;21.034;2023-01-31T19:22:19;99583.41;;;8.33;56.07
24996;BME280;13016;52.162;21.034;2023-01-31T19:24:44;99579.04;;;8.43;56.12
24996;BME280;13016;52.162;21.034;2023-01-31T19:27:09;99572.65;;;8.44;56.23
24996;BME280;13016;52.162;21.034;2023-01-31T19:29:37;99574.14;;;8.51;56.30
24996;BME280;13016;52.162;21.034;2023-01-31T19:32:02;99566.98;;;8.42;56.35
24996;BME280;13016;52.162;21.034;2023-01-31T19:34:28;99567.68;;;8.48;56.56
24996;BME280;13016;52.162;21.034;2023-01-31T19:36:53;99555.62;;;8.47;56.77
24996;BME280;13016;52.162;21.034;2023-01-31T19:39:18;99547.09;;;8.54;56.79
24996;BME280;13016;52.162;21.034;2023-01-31T19:41:43;99542.64;;;8.62;56.79
24996;BME280;13016;52.162;21.034;2023-01-31T19:44:09;99538.59;;;8.57;56.72
24996;BME280;13016;52.162;21.034;2023-01-31T19:46:35;99533.98;;;8.34;57.50
24996;BME280;13016;52.162;21.034;2023-01-31T19:49:01;99526.95;;;8.28;57.80
24996;BME280;13016;52.162;21.034;2023-01-31T19:51:27;99526.77;;;8.34;57.74
24996;BME280;13016;52.162;21.034;2023-01-31T19:53:54;99513.89;;;8.32;58.18
24996;BME280;13016;52.162;21.034;2023-01-31T19:56:20;99509.56;;;8.52;58.02
24996;BME280;13016;52.162;21.034;2023-01-31T19:58:45;99504.27;;;8.39;57.74
24996;BME280;13016;52.162;21.034;2023-01-31T20:01:14;99501.27;;;8.45;57.99
24996;BME280;13016;52.162;21.034;2023-01-31T20:03:40;99492.27;;;8.43;57.97
24996;BME280;13016;52.162;21.034;2023-01-31T20:06:07;99486.48;;;8.32;58.15
24996;BME280;13016;52.162;21.034;2023-01-31T20:08:34;99481.52;;;8.30;58.39
24996;BME280;13016;52.162;21.034;2023-01-31T20:11:00;99474.13;;;8.30;58.42
24996;BME280;13016;52.162;21.034;2023-01-31T20:13:25;99469.63;;;8.13;58.92
24996;BME280;13016;52.162;21.034;2023-01-31T20:15:57;99464.58;;;7.95;59.41
24996;BME280;13016;52.162;21.034;2023-01-31T20:18:23;99460.22;;;8.25;59.04
24996;BME280;13016;52.162;21.034;2023-01-31T20:20:48;99454.69;;;8.26;58.81
24996;BME280;13016;52.162;21.034;2023-01-31T20:23:13;99447.54;;;8.34;58.87
24996;BME280;13016;52.162;21.034;2023-01-31T20:25:38;99440.68;;;8.36;58.48
24996;BME280;13016;52.162;21.034;2023-01-31T20:28:04;99432.91;;;8.34;58.40
24996;BME280;13016;52.162;21.034;2023-01-31T20:30:29;99427.69;;;8.39;58.56
24996;BME280;13016;52.162;21.034;2023-01-31T20:32:54;99422.56;;;8.45;58.47
24996;BME280;13016;52.162;21.034;2023-01-31T20:35:19;99423.91;;;8.50;58.68
24996;BME280;13016;52.162;21.034;2023-01-31T20:37:45;99418.36;;;8.55;58.42
24996;BME280;13016;52.162;21.034;2023-01-31T20:40:10;99411.11;;;8.58;58.41
24996;BME280;13016;52.162;21.034;2023-01-31T20:42:35;99403.55;;;8.58;58.40
24996;BME280;13016;52.162;21.034;2023-01-31T20:45:01;99395.80;;;8.50;58.35
24996;BME280;13016;52.162;21.034;2023-01-31T20:47:26;99398.65;;;8.50;58.72
24996;BME280;13016;52.162;21.034;2023-01-31T20:49:51;99399.25;;;8.56;58.68
24996;BME280;13016;52.162;21.034;2023-01-31T20:52:17;99390.08;;;8.41;58.88
24996;BME280;13016;52.162;21.034;2023-01-31T20:54:42;99388.52;;;8.46;58.90
24996;BME280;13016;52.162;21.034;2023-01-31T20:57:07;99386.81;;;8.38;59.19
24996;BME280;13016;52.162;21.034;2023-01-31T20:59:32;99377.71;;;8.16;59.78
24996;BME280;13016;52.162;21.034;2023-01-31T21:01:57;99377.17;;;8.27;60.07
24996;BME280;13016;52.162;21.034;2023-01-31T21:04:23;99370.59;;;8.34;59.75
24996;BME280;13016;52.162;21.034;2023-01-31T21:06:48;99369.23;;;8.36;59.94
24996;BME280;13016;52.162;21.034;2023-01-31T21:09:13;99364.40;;;8.42;59.81
24996;BME280;13016;52.162;21.034;2023-01-31T21:11:39;99362.05;;;8.50;59.65
24996;BME280;13016;52.162;21.034;2023-01-31T21:14:04;99358.81;;;8.67;59.41
24996;BME280;13016;52.162;21.034;2023-01-31T21:16:29;99351.22;;;8.65;59.05
24996;BME280;13016;52.162;21.034;2023-01-31T21:18:55;99346.83;;;8.65;59.15
24996;BME280;13016;52.162;21.034;2023-01-31T21:21:20;99342.35;;;8.56;59.04
24996;BME280;13016;52.162;21.034;2023-01-31T21:23:45;99331.88;;;8.45;59.27
24996;BME280;13016;52.162;21.034;2023-01-31T21:26:10;99333.63;;;8.42;59.59
24996;BME280;13016;52.162;21.034;2023-01-31T21:28:36;99327.78;;;8.46;59.59
24996;BME280;13016;52.162;21.034;2023-01-31T21:31:04;99327.78;;;8.58;59.50
24996;BME280;13016;52.162;21.034;2023-01-31T21:33:30;99323.84;;;8.47;59.58
24996;BME280;13016;52.162;21.034;2023-01-31T21:35:56;99317.79;;;8.55;59.69
24996;BME280;13016;52.162;21.034;2023-01-31T21:38:21;99310.23;;;8.58;59.74
24996;BME280;13016;52.162;21.034;2023-01-31T21:40:47;99307.15;;;8.57;59.52
24996;BME280;13016;52.162;21.034;2023-01-31T21:43:12;99303.09;;;8.59;59.74
24996;BME280;13016;52.162;21.034;2023-01-31T21:45:37;99298.20;;;8.68;59.54
24996;BME280;13016;52.162;21.034;2023-01-31T21:48:02;99292.20;;;8.59;59.83
24996;BME280;13016;52.162;21.034;2023-01-31T21:53:31;99282.09;;;8.65;59.56
24996;BME280;13016;52.162;21.034;2023-01-31T21:56:12;99277.95;;;8.44;60.12
24996;BME280;13016;52.162;21.034;2023-01-31T21:58:38;99268.20;;;8.53;60.16
24996;BME280;13016;52.162;21.034;2023-01-31T22:01:10;99263.97;;;8.56;59.91
24996;BME280;13016;52.162;21.034;2023-01-31T22:03:37;99265.61;;;8.57;59.89
24996;BME280;13016;52.162;21.034;2023-01-31T22:06:05;99258.19;;;8.65;59.87
24996;BME280;13016;52.162;21.034;2023-01-31T22:08:30;99255.88;;;8.53;59.67
24996;BME280;13016;52.162;21.034;2023-01-31T22:11:09;99255.16;;;8.48;59.63
24996;BME280;13016;52.162;21.034;2023-01-31T22:13:35;99244.96;;;8.34;59.43
24996;BME280;13016;52.162;21.034;2023-01-31T22:16:03;99239.63;;;8.17;59.43
24996;BME280;13016;52.162;21.034;2023-01-31T22:18:29;99237.77;;;8.15;59.85
24996;BME280;13016;52.162;21.034;2023-01-31T22:21:12;99227.27;;;8.05;59.95
24996;BME280;13016;52.162;21.034;2023-01-31T22:23:39;99225.52;;;7.84;60.84
24996;BME280;13016;52.162;21.034;2023-01-31T22:26:10;99225.05;;;7.75;61.10
24996;BME280;13016;52.162;21.034;2023-01-31T22:28:36;99218.54;;;7.68;61.47
24996;BME280;13016;52.162;21.034;2023-01-31T22:31:03;99215.42;;;7.55;62.33
24996;BME280;13016;52.162;21.034;2023-01-31T22:33:30;99207.71;;;7.54;62.36
24996;BME280;13016;52.162;21.034;2023-01-31T22:35:56;99209.19;;;7.64;62.44
24996;BME280;13016;52.162;21.034;2023-01-31T22:38:21;99208.27;;;7.85;61.91
24996;BME280;13016;52.162;21.034;2023-01-31T22:40:47;99206.00;;;7.92;61.86
24996;BME280;13016;52.162;21.034;2023-01-31T22:43:17;99203.59;;;7.81;62.02
24996;BME280;13016;52.162;21.034;2023-01-31T22:45:47;99199.94;;;7.83;62.15
24996;BME280;13016;52.162;21.034;2023-01-31T22:48:14;99199.61;;;7.83;62.25
24996;BME280;13016;52.162;21.034;2023-01-31T22:50:40;99196.88;;;7.77;62.72
24996;BME280;13016;52.162;21.034;2023-01-31T22:53:06;99194.79;;;7.99;62.54
24996;BME280;13016;52.162;21.034;2023-01-31T22:55:39;99190.27;;;8.11;62.17
24996;BME280;13016;52.162;21.034;2023-01-31T22:58:05;99179.69;;;8.02;62.16
24996;BME280;13016;52.162;21.034;2023-01-31T23:00:31;99178.48;;;7.89;62.66
24996;BME280;13016;52.162;21.034;2023-01-31T23:02:56;99174.16;;;8.03;62.58
24996;BME280;13016;52.162;21.034;2023-01-31T23:05:21;99172.65;;;7.94;62.91
24996;BME280;13016;52.162;21.034;2023-01-31T23:07:47;99169.06;;;8.13;62.53
24996;BME280;13016;52.162;21.034;2023-01-31T23:10:27;99165.73;;;8.13;62.68
24996;BME280;13016;52.162;21.034;2023-01-31T23:12:52;99168.52;;;8.34;62.33
24996;BME280;13016;52.162;21.034;2023-01-31T23:15:18;99168.84;;;8.19;62.31
24996;BME280;13016;52.162;21.034;2023-01-31T23:17:44;99164.73;;;8.10;62.86
24996;BME280;13016;52.162;21.034;2023-01-31T23:20:12;99159.31;;;8.28;62.80
24996;BME280;13016;52.162;21.034;2023-01-31T23:22:38;99150.49;;;8.35;62.57
24996;BME280;13016;52.162;21.034;2023-01-31T23:25:06;99152.66;;;8.24;62.76
24996;BME280;13016;52.162;21.034;2023-01-31T23:27:32;99150.98;;;8.31;63.03
24996;BME280;13016;52.162;21.034;2023-01-31T23:29:57;99148.70;;;8.36;62.98
24996;BME280;13016;52.162;21.034;2023-01-31T23:32:23;99143.08;;;8.36;63.09
24996;BME280;13016;52.162;21.034;2023-01-31T23:34:49;99136.73;;;8.44;62.86
24996;BME280;13016;52.162;21.034;2023-01-31T23:37:15;99142.60;;;8.57;62.77
24996;BME280;13016;52.162;21.034;2023-01-31T23:39:41;99134.06;;;8.66;62.46
24996;BME280;13016;52.162;21.034;2023-01-31T23:42:07;99137.44;;;8.55;62.76
24996;BME280;13016;52.162;21.034;2023-01-31T23:44:32;99135.81;;;8.73;62.74
24996;BME280;13016;52.162;21.034;2023-01-31T23:46:57;99137.82;;;8.77;62.41
24996;BME280;13016;52.162;21.034;2023-01-31T23:49:22;99135.64;;;8.61;62.72
24996;BME280;13016;52.162;21.034;2023-01-31T23:51:48;99131.45;;;8.63;62.46
